Time;durP1;ratioP1;P1;durP2;ratioP2;P2;SDS_P1;SDS_P2;PMS_P1;PMS_P2;Temp;Humidity;BMP_temperature;BMP_pressure;BME280_temperature;BME280_humidity;BME280_pressure;Samples;Min_cycle;Max_cycle;Signal;HPM_P1;HPM_P2
2022/08/21 00:01:20;;;;;;;28.45;5.32;;;;;;;;;;5091902;28;20020;-48
2022/08/21 00:03:47;;;;;;;22.35;5.72;;;;;;;;;;5090620;28;20107;-53
2022/08/21 00:06:14;;;;;;;22.75;5.57;;;;;;;;;;5091169;28;20106;-48
2022/08/21 00:08:42;;;;;;;23.83;5.65;;;;;;;;;;5090208;28;20051;-48
2022/08/21 00:11:09;;;;;;;32.00;5.97;;;;;;;;;;5091068;28;20028;-47
2022/08/21 00:13:37;;;;;;;35.35;6.53;;;;;;;;;;5086571;28;20053;-46
2022/08/21 00:16:04;;;;;;;38.17;6.93;;;;;;;;;;5090487;28;20032;-48
2022/08/21 00:18:31;;;;;;;34.00;5.90;;;;;;;;;;5091720;28;20043;-47
2022/08/21 00:20:58;;;;;;;43.28;6.25;;;;;;;;;;5091556;28;20079;-48
2022/08/21 00:23:25;;;;;;;30.17;6.13;;;;;;;;;;5077438;28;20024;-45
2022/08/21 00:25:52;;;;;;;40.70;6.93;;;;;;;;;;5090345;28;20051;-46
2022/08/21 00:28:19;;;;;;;34.80;6.22;;;;;;;;;;5091788;28;20122;-48
2022/08/21 00:30:47;;;;;;;36.97;6.47;;;;;;;;;;5091461;28;20024;-45
2022/08/21 00:33:14;;;;;;;36.63;7.00;;;;;;;;;;5091700;28;20113;-44
2022/08/21 00:35:42;;;;;;;29.08;6.70;;;;;;;;;;5091714;28;20103;-45
2022/08/21 00:38:09;;;;;;;34.38;6.78;;;;;;;;;;5091223;28;20028;-46
2022/08/21 00:40:39;;;;;;;33.22;6.65;;;;;;;;;;5091413;28;20052;-50
2022/08/21 00:43:07;;;;;;;39.75;7.30;;;;;;;;;;5091642;28;20024;-44
2022/08/21 00:45:34;;;;;;;28.90;6.28;;;;;;;;;;5091540;28;20046;-49
2022/08/21 00:48:02;;;;;;;33.83;8.00;;;;;;;;;;5091187;28;20020;-48
2022/08/21 00:50:32;;;;;;;37.47;7.57;;;;;;;;;;5087132;28;20393;-46
2022/08/21 00:52:59;;;;;;;39.78;7.95;;;;;;;;;;5091208;28;20427;-49
2022/08/21 00:55:27;;;;;;;37.55;7.25;;;;;;;;;;5091226;28;20494;-51
2022/08/21 00:57:56;;;;;;;34.13;7.30;;;;;;;;;;5091484;28;20493;-47
2022/08/21 01:00:25;;;;;;;33.30;7.38;;;;;;;;;;5091116;28;20024;-49
2022/08/21 01:02:52;;;;;;;36.10;7.93;;;;;;;;;;5091373;28;20422;-53
2022/08/21 01:05:19;;;;;;;35.92;6.63;;;;;;;;;;5091434;28;20097;-45
2022/08/21 01:07:45;;;;;;;40.33;7.18;;;;;;;;;;5089569;28;20036;-46
2022/08/21 01:10:14;;;;;;;30.52;6.10;;;;;;;;;;5091362;28;20020;-46
2022/08/21 01:12:41;;;;;;;34.03;7.50;;;;;;;;;;5091050;28;20075;-46
2022/08/21 01:15:09;;;;;;;34.10;7.53;;;;;;;;;;5090806;28;20029;-47
2022/08/21 01:17:36;;;;;;;33.42;7.78;;;;;;;;;;5091254;28;20040;-48
2022/08/21 01:20:07;;;;;;;31.00;7.20;;;;;;;;;;5092799;28;20107;-47
2022/08/21 01:22:34;;;;;;;28.30;6.25;;;;;;;;;;5094458;28;20024;-47
2022/08/21 01:25:00;;;;;;;33.75;7.72;;;;;;;;;;5094591;28;20035;-46
2022/08/21 01:27:27;;;;;;;30.30;7.45;;;;;;;;;;5094997;28;20031;-49
2022/08/21 01:29:57;;;;;;;35.25;6.65;;;;;;;;;;5094461;28;20028;-48
2022/08/21 01:32:24;;;;;;;33.35;6.63;;;;;;;;;;5081199;28;20043;-46
2022/08/21 01:34:52;;;;;;;36.92;7.07;;;;;;;;;;5094738;28;20032;-47
2022/08/21 01:37:19;;;;;;;34.80;7.38;;;;;;;;;;5094144;28;20103;-47
2022/08/21 01:39:47;;;;;;;40.22;7.32;;;;;;;;;;5094880;28;20083;-48
2022/08/21 01:42:14;;;;;;;28.88;6.90;;;;;;;;;;5094546;28;20051;-49
2022/08/21 01:44:41;;;;;;;31.73;7.38;;;;;;;;;;5093953;28;20423;-50
2022/08/21 01:47:09;;;;;;;32.90;6.45;;;;;;;;;;5094477;28;20401;-47
2022/08/21 01:49:36;;;;;;;27.30;6.10;;;;;;;;;;5094628;28;20032;-48
2022/08/21 01:52:04;;;;;;;29.58;6.40;;;;;;;;;;5093981;28;20039;-44
2022/08/21 01:54:32;;;;;;;26.92;6.45;;;;;;;;;;5094448;28;20153;-46
2022/08/21 01:56:59;;;;;;;28.90;6.18;;;;;;;;;;5093997;28;20059;-45
2022/08/21 01:59:27;;;;;;;28.10;6.68;;;;;;;;;;5094140;28;20564;-51
2022/08/21 02:01:54;;;;;;;25.13;5.80;;;;;;;;;;5094306;28;20028;-49
2022/08/21 02:04:21;;;;;;;24.60;5.68;;;;;;;;;;5094079;28;20027;-49
2022/08/21 02:06:48;;;;;;;24.20;6.32;;;;;;;;;;5093407;28;20021;-50
2022/08/21 02:09:15;;;;;;;28.38;6.22;;;;;;;;;;5093859;28;20043;-45
2022/08/21 02:11:43;;;;;;;30.10;7.10;;;;;;;;;;5087748;28;20044;-55
2022/08/21 02:14:11;;;;;;;29.10;6.47;;;;;;;;;;5091802;28;20050;-46
2022/08/21 02:16:39;;;;;;;22.83;5.97;;;;;;;;;;5092673;28;20382;-51
2022/08/21 02:19:06;;;;;;;26.15;6.32;;;;;;;;;;5092907;28;20539;-46
2022/08/21 02:21:33;;;;;;;20.05;5.43;;;;;;;;;;5079532;28;20028;-47
2022/08/21 02:24:00;;;;;;;28.75;6.72;;;;;;;;;;5074081;28;20021;-47
2022/08/21 02:26:27;;;;;;;24.27;6.13;;;;;;;;;;5076367;28;20032;-52
2022/08/21 02:28:55;;;;;;;28.10;6.43;;;;;;;;;;5074013;28;20103;-47
2022/08/21 02:31:22;;;;;;;28.45;6.78;;;;;;;;;;5074151;28;20505;-55
2022/08/21 02:33:50;;;;;;;23.67;6.70;;;;;;;;;;5084886;28;20036;-46
2022/08/21 02:36:17;;;;;;;29.48;6.90;;;;;;;;;;5079689;28;20111;-52
2022/08/21 02:38:44;;;;;;;27.75;6.45;;;;;;;;;;5093494;28;20032;-45
2022/08/21 02:41:14;;;;;;;23.13;6.50;;;;;;;;;;5092006;28;20024;-53
2022/08/21 02:43:41;;;;;;;28.88;6.55;;;;;;;;;;5081216;28;20024;-47
2022/08/21 02:46:09;;;;;;;24.00;6.25;;;;;;;;;;5093935;28;20047;-50
2022/08/21 02:48:37;;;;;;;22.92;5.90;;;;;;;;;;5073150;28;20394;-52
2022/08/21 02:51:06;;;;;;;23.90;6.53;;;;;;;;;;5086064;28;20378;-48
2022/08/21 02:53:33;;;;;;;21.33;5.15;;;;;;;;;;5093526;28;20040;-49
2022/08/21 02:56:02;;;;;;;17.95;5.40;;;;;;;;;;5093487;28;20490;-47
2022/08/21 02:58:34;;;;;;;18.25;5.65;;;;;;;;;;5075577;28;20044;-46
2022/08/21 03:01:01;;;;;;;18.90;5.47;;;;;;;;;;5083839;28;20055;-48
2022/08/21 03:03:30;;;;;;;19.35;5.95;;;;;;;;;;5077790;28;20496;-52
2022/08/21 03:05:57;;;;;;;20.38;5.88;;;;;;;;;;5093364;28;20419;-46
2022/08/21 03:08:25;;;;;;;23.15;5.85;;;;;;;;;;5092277;28;20359;-49
2022/08/21 03:10:53;;;;;;;16.17;5.35;;;;;;;;;;5080737;28;20032;-44
2022/08/21 03:13:21;;;;;;;17.05;5.95;;;;;;;;;;5093031;28;20434;-49
2022/08/21 03:15:49;;;;;;;26.38;5.57;;;;;;;;;;5093108;28;20058;-48
2022/08/21 03:18:16;;;;;;;22.10;5.38;;;;;;;;;;5081710;28;20029;-49
2022/08/21 03:20:44;;;;;;;21.42;5.72;;;;;;;;;;5093221;28;20141;-51
2022/08/21 03:23:12;;;;;;;17.33;5.70;;;;;;;;;;5093420;28;20032;-49
2022/08/21 03:25:40;;;;;;;18.55;5.47;;;;;;;;;;5092801;28;20097;-50
2022/08/21 03:28:09;;;;;;;20.33;5.88;;;;;;;;;;5093100;28;20024;-52
2022/08/21 03:30:36;;;;;;;17.25;5.47;;;;;;;;;;5093143;28;20047;-47
2022/08/21 03:33:04;;;;;;;14.00;5.53;;;;;;;;;;5093119;28;20103;-47
2022/08/21 03:35:31;;;;;;;18.83;6.13;;;;;;;;;;5093098;28;20032;-51
2022/08/21 03:37:59;;;;;;;17.65;6.05;;;;;;;;;;5093014;28;20028;-46
2022/08/21 03:40:26;;;;;;;18.90;5.43;;;;;;;;;;5092956;28;20039;-49
2022/08/21 03:42:54;;;;;;;22.80;5.78;;;;;;;;;;5092552;28;20384;-46
2022/08/21 03:45:21;;;;;;;16.65;6.00;;;;;;;;;;5092636;28;20123;-46
2022/08/21 03:47:52;;;;;;;19.42;5.90;;;;;;;;;;5092905;28;20121;-46
2022/08/21 03:50:19;;;;;;;22.73;6.73;;;;;;;;;;5086261;28;20089;-45
2022/08/21 03:52:46;;;;;;;18.45;6.00;;;;;;;;;;5081432;28;20024;-44
2022/08/21 03:55:13;;;;;;;15.77;5.75;;;;;;;;;;5089905;28;20035;-46
2022/08/21 03:57:40;;;;;;;23.77;5.78;;;;;;;;;;5092843;28;20036;-46
2022/08/21 04:00:11;;;;;;;16.85;5.63;;;;;;;;;;5089513;28;20032;-44
2022/08/21 04:02:39;;;;;;;20.75;5.50;;;;;;;;;;5080512;28;20107;-44
2022/08/21 04:05:06;;;;;;;18.17;5.70;;;;;;;;;;5081467;28;20097;-47
2022/08/21 04:07:33;;;;;;;19.70;5.45;;;;;;;;;;5088054;28;20435;-46
2022/08/21 04:10:00;;;;;;;17.00;5.20;;;;;;;;;;5091800;28;20436;-46
2022/08/21 04:12:27;;;;;;;15.60;5.65;;;;;;;;;;5091907;28;20040;-47
2022/08/21 04:14:54;;;;;;;19.67;4.93;;;;;;;;;;5092296;28;20044;-46
2022/08/21 04:17:21;;;;;;;14.10;4.97;;;;;;;;;;5092461;28;20028;-47
2022/08/21 04:19:48;;;;;;;11.95;4.82;;;;;;;;;;5092633;28;20050;-46
2022/08/21 04:22:16;;;;;;;15.73;5.53;;;;;;;;;;5092635;28;20039;-49
2022/08/21 04:24:43;;;;;;;15.88;5.05;;;;;;;;;;5092539;28;20031;-46
2022/08/21 04:27:11;;;;;;;13.63;4.95;;;;;;;;;;5092312;28;20032;-48
2022/08/21 04:29:38;;;;;;;14.75;5.00;;;;;;;;;;5092441;28;20481;-46
2022/08/21 04:32:05;;;;;;;19.40;4.82;;;;;;;;;;5092369;28;20051;-48
2022/08/21 04:34:32;;;;;;;12.70;4.90;;;;;;;;;;5092213;28;20534;-50
2022/08/21 04:36:59;;;;;;;15.13;4.95;;;;;;;;;;5092309;28;20032;-46
2022/08/21 04:39:26;;;;;;;10.68;4.57;;;;;;;;;;5092395;28;20039;-46
2022/08/21 04:41:53;;;;;;;14.77;4.78;;;;;;;;;;5092390;28;20028;-48
2022/08/21 04:44:20;;;;;;;12.30;4.35;;;;;;;;;;5092341;28;20039;-46
2022/08/21 04:46:47;;;;;;;15.15;4.72;;;;;;;;;;5092063;28;20032;-46
2022/08/21 04:49:14;;;;;;;12.38;5.03;;;;;;;;;;5092434;28;20099;-46
2022/08/21 04:51:41;;;;;;;13.10;4.40;;;;;;;;;;5092082;28;20028;-47
2022/08/21 04:54:15;;;;;;;17.80;4.57;;;;;;;;;;5092337;28;20038;-47
2022/08/21 04:56:47;;;;;;;15.10;3.80;;;;;;;;;;5094789;28;20371;-46
2022/08/21 04:59:20;;;;;;;12.13;4.47;;;;;;;;;;5096207;28;20047;-47
2022/08/21 05:01:47;;;;;;;12.45;4.88;;;;;;;;;;5096108;28;20040;-46
2022/08/21 05:04:17;;;;;;;16.33;4.47;;;;;;;;;;5095979;28;20036;-47
2022/08/21 05:06:46;;;;;;;12.88;4.22;;;;;;;;;;5095937;28;20028;-47
2022/08/21 05:09:15;;;;;;;12.68;4.68;;;;;;;;;;5096009;28;20084;-46
2022/08/21 05:11:42;;;;;;;13.32;4.32;;;;;;;;;;5095818;28;20071;-46
2022/08/21 05:14:11;;;;;;;11.82;4.32;;;;;;;;;;5096010;28;20063;-47
2022/08/21 05:16:38;;;;;;;12.95;4.20;;;;;;;;;;5096079;28;20100;-46
2022/08/21 05:19:08;;;;;;;11.40;3.85;;;;;;;;;;5095861;28;20028;-47
2022/08/21 05:21:36;;;;;;;11.63;3.63;;;;;;;;;;5095842;28;20089;-47
2022/08/21 05:24:03;;;;;;;11.40;3.85;;;;;;;;;;5095749;28;20031;-47
2022/08/21 05:26:30;;;;;;;9.93;3.92;;;;;;;;;;5095631;28;20028;-47
2022/08/21 05:28:57;;;;;;;12.10;4.25;;;;;;;;;;5095607;28;20073;-46
2022/08/21 05:31:24;;;;;;;9.45;3.65;;;;;;;;;;5095612;28;20032;-47
2022/08/21 05:33:51;;;;;;;10.70;3.63;;;;;;;;;;5095486;28;20054;-46
2022/08/21 05:36:19;;;;;;;6.28;3.50;;;;;;;;;;5095566;28;20095;-46
2022/08/21 05:38:46;;;;;;;7.70;2.92;;;;;;;;;;5095379;28;20024;-46
2022/08/21 05:41:13;;;;;;;9.60;3.65;;;;;;;;;;5095444;28;20073;-49
2022/08/21 05:43:40;;;;;;;10.57;3.70;;;;;;;;;;5095440;28;20027;-46
2022/08/21 05:46:08;;;;;;;9.80;3.28;;;;;;;;;;5095361;28;20024;-48
2022/08/21 05:48:36;;;;;;;7.35;3.65;;;;;;;;;;5095114;28;20046;-47
2022/08/21 05:51:07;;;;;;;7.65;3.20;;;;;;;;;;5095269;28;20024;-48
2022/08/21 05:53:35;;;;;;;10.80;3.13;;;;;;;;;;5095147;28;20078;-48
2022/08/21 05:56:03;;;;;;;7.65;2.83;;;;;;;;;;5095135;28;20028;-46
2022/08/21 05:58:32;;;;;;;8.32;3.03;;;;;;;;;;5094923;28;20027;-46
2022/08/21 06:01:00;;;;;;;6.75;3.00;;;;;;;;;;5092118;28;20074;-46
2022/08/21 06:03:28;;;;;;;6.47;2.60;;;;;;;;;;5095033;28;20024;-46
2022/08/21 06:05:56;;;;;;;6.28;2.90;;;;;;;;;;5094572;28;20142;-46
2022/08/21 06:08:24;;;;;;;6.50;2.97;;;;;;;;;;5094793;28;20028;-46
2022/08/21 06:10:51;;;;;;;7.32;2.83;;;;;;;;;;5094860;28;20478;-48
2022/08/21 06:13:19;;;;;;;11.15;3.00;;;;;;;;;;5094487;28;20131;-47
2022/08/21 06:15:46;;;;;;;7.95;2.90;;;;;;;;;;5094622;28;20028;-47
2022/08/21 06:18:13;;;;;;;7.00;2.80;;;;;;;;;;5093368;28;20385;-47
2022/08/21 06:20:40;;;;;;;6.25;2.75;;;;;;;;;;5094673;28;20032;-47
2022/08/21 06:23:07;;;;;;;9.50;2.95;;;;;;;;;;5094720;28;20020;-46
2022/08/21 06:25:35;;;;;;;6.30;2.58;;;;;;;;;;5094600;28;20035;-46
2022/08/21 06:28:06;;;;;;;6.55;2.58;;;;;;;;;;5094339;28;20420;-46
2022/08/21 06:30:33;;;;;;;8.45;2.97;;;;;;;;;;5094560;28;20102;-46
2022/08/21 06:33:01;;;;;;;6.50;2.67;;;;;;;;;;5094305;28;20040;-49
2022/08/21 06:35:28;;;;;;;6.30;2.92;;;;;;;;;;5094245;28;20081;-46
2022/08/21 06:37:57;;;;;;;7.55;2.60;;;;;;;;;;5202421;22;20136;-61
2022/08/21 06:40:25;;;;;;;7.93;3.00;;;;;;;;;;5074024;28;20028;-62
2022/08/21 06:42:52;;;;;;;7.32;2.58;;;;;;;;;;5074078;28;20029;-63
2022/08/21 06:45:19;;;;;;;5.63;2.40;;;;;;;;;;5074034;28;20048;-63
2022/08/21 06:47:46;;;;;;;7.10;2.50;;;;;;;;;;5073821;28;20020;-64
2022/08/21 06:50:13;;;;;;;5.55;2.47;;;;;;;;;;5073874;28;20374;-64
2022/08/21 06:52:40;;;;;;;5.35;2.60;;;;;;;;;;5073775;28;20025;-64
2022/08/21 06:55:08;;;;;;;5.55;2.40;;;;;;;;;;5073722;28;20016;-65
2022/08/21 06:57:35;;;;;;;6.18;2.38;;;;;;;;;;5073704;28;20021;-64
2022/08/21 07:00:04;;;;;;;6.32;2.33;;;;;;;;;;5073756;28;20032;-64
2022/08/21 07:02:33;;;;;;;6.25;2.85;;;;;;;;;;5073869;28;20078;-65
2022/08/21 07:05:00;;;;;;;4.05;2.30;;;;;;;;;;5073640;28;20029;-65
2022/08/21 07:07:27;;;;;;;7.20;2.40;;;;;;;;;;5073418;28;20017;-65
2022/08/21 07:09:54;;;;;;;7.38;2.30;;;;;;;;;;5073558;28;20020;-64
2022/08/21 07:12:21;;;;;;;6.22;2.17;;;;;;;;;;5073384;28;20128;-64
2022/08/21 07:14:48;;;;;;;5.00;2.00;;;;;;;;;;5073435;28;20115;-64
2022/08/21 07:17:15;;;;;;;6.57;2.65;;;;;;;;;;5072579;28;20021;-64
2022/08/21 07:19:42;;;;;;;5.88;2.25;;;;;;;;;;5073258;28;20387;-64
2022/08/21 07:22:09;;;;;;;6.05;2.30;;;;;;;;;;5073330;28;20036;-65
2022/08/21 07:24:36;;;;;;;4.72;2.22;;;;;;;;;;5073142;28;20029;-65
2022/08/21 07:27:03;;;;;;;6.05;2.40;;;;;;;;;;5073103;28;20048;-64
2022/08/21 07:29:30;;;;;;;6.00;2.30;;;;;;;;;;5073184;28;20032;-63
2022/08/21 07:31:57;;;;;;;3.47;1.70;;;;;;;;;;5073099;28;20031;-63
2022/08/21 07:34:24;;;;;;;3.28;1.85;;;;;;;;;;5073029;28;20028;-63
2022/08/21 07:36:51;;;;;;;6.07;1.90;;;;;;;;;;5072791;28;20060;-63
2022/08/21 07:39:18;;;;;;;6.22;1.60;;;;;;;;;;5073015;28;20020;-63
2022/08/21 07:41:46;;;;;;;6.38;1.98;;;;;;;;;;5072959;28;20028;-63
2022/08/21 07:44:13;;;;;;;4.72;2.05;;;;;;;;;;5072950;28;20056;-63
2022/08/21 07:46:40;;;;;;;4.40;2.13;;;;;;;;;;5072779;28;20432;-63
2022/08/21 07:49:07;;;;;;;3.85;2.10;;;;;;;;;;5072874;28;20029;-63
2022/08/21 07:51:34;;;;;;;8.82;1.88;;;;;;;;;;5072804;28;20417;-63
2022/08/21 07:54:01;;;;;;;4.68;1.88;;;;;;;;;;5072714;28;20032;-63
2022/08/21 07:56:29;;;;;;;5.63;2.00;;;;;;;;;;5072692;28;20032;-63
2022/08/21 07:58:57;;;;;;;5.05;2.13;;;;;;;;;;5072721;28;20423;-63
2022/08/21 08:01:24;;;;;;;3.35;1.90;;;;;;;;;;5072738;28;20035;-63
2022/08/21 08:03:52;;;;;;;2.50;1.50;;;;;;;;;;5072681;28;20036;-63
2022/08/21 08:06:19;;;;;;;5.28;1.70;;;;;;;;;;5072591;28;20036;-63
2022/08/21 08:08:46;;;;;;;4.63;2.15;;;;;;;;;;5072603;28;20033;-63
2022/08/21 08:11:16;;;;;;;4.43;1.80;;;;;;;;;;5072639;28;20047;-63
2022/08/21 08:13:45;;;;;;;5.57;1.90;;;;;;;;;;5072462;28;20041;-63
2022/08/21 08:16:12;;;;;;;4.38;1.70;;;;;;;;;;5072555;28;20058;-63
2022/08/21 08:18:39;;;;;;;5.30;1.80;;;;;;;;;;5072641;28;20055;-63
2022/08/21 08:21:06;;;;;;;3.47;1.55;;;;;;;;;;5072495;28;20070;-63
2022/08/21 08:23:33;;;;;;;4.68;1.77;;;;;;;;;;5072521;28;20490;-63
2022/08/21 08:26:02;;;;;;;5.72;1.83;;;;;;;;;;5072310;28;20656;-62
2022/08/21 08:28:31;;;;;;;4.00;1.83;;;;;;;;;;5073129;28;20486;-63
2022/08/21 08:30:58;;;;;;;3.45;1.50;;;;;;;;;;5076859;28;20039;-63
2022/08/21 08:33:25;;;;;;;4.20;1.83;;;;;;;;;;5076533;28;20038;-63
2022/08/21 08:35:53;;;;;;;4.40;1.45;;;;;;;;;;5076422;28;20496;-63
2022/08/21 08:38:21;;;;;;;3.78;1.58;;;;;;;;;;5076224;28;20502;-63
2022/08/21 08:40:53;;;;;;;3.63;1.67;;;;;;;;;;5076410;28;20071;-63
2022/08/21 08:43:21;;;;;;;4.47;1.67;;;;;;;;;;5076417;28;20032;-63
2022/08/21 08:45:50;;;;;;;3.88;1.70;;;;;;;;;;5076109;28;20445;-63
2022/08/21 08:48:31;;;;;;;5.65;1.63;;;;;;;;;;5076213;28;20570;-63
2022/08/21 08:51:00;;;;;;;3.40;1.48;;;;;;;;;;5076246;28;20029;-63
2022/08/21 08:53:31;;;;;;;2.40;1.48;;;;;;;;;;5076145;28;20060;-63
2022/08/21 08:55:58;;;;;;;4.07;1.63;;;;;;;;;;5076016;28;20017;-63
2022/08/21 08:58:33;;;;;;;4.82;1.50;;;;;;;;;;5076056;28;20060;-63
2022/08/21 09:01:01;;;;;;;7.32;1.42;;;;;;;;;;5075929;28;20119;-63
2022/08/21 09:03:28;;;;;;;3.42;1.50;;;;;;;;;;5075959;28;20031;-63
2022/08/21 09:05:55;;;;;;;2.25;1.10;;;;;;;;;;5075829;28;20529;-63
2022/08/21 09:08:33;;;;;;;3.10;1.50;;;;;;;;;;5075885;28;20398;-63
2022/08/21 09:11:23;;;;;;;5.50;1.52;;;;;;;;;;5075787;28;20052;-63
2022/08/21 09:13:50;;;;;;;3.42;1.25;;;;;;;;;;5075691;28;20429;-63
2022/08/21 09:16:36;;;;;;;5.15;1.30;;;;;;;;;;5075577;28;20485;-63
2022/08/21 09:19:13;;;;;;;3.58;1.23;;;;;;;;;;5075655;28;20099;-63
2022/08/21 09:21:40;;;;;;;3.60;1.33;;;;;;;;;;5075504;28;20028;-63
2022/08/21 09:24:16;;;;;;;5.70;1.60;;;;;;;;;;5075684;28;20094;-63
2022/08/21 09:26:52;;;;;;;2.80;1.40;;;;;;;;;;5075312;28;20021;-63
2022/08/21 09:29:20;;;;;;;3.47;1.23;;;;;;;;;;5075475;28;20024;-63
2022/08/21 09:31:48;;;;;;;3.55;1.30;;;;;;;;;;5075415;28;20044;-63
2022/08/21 09:34:25;;;;;;;2.88;1.20;;;;;;;;;;5075576;28;20071;-63
2022/08/21 09:36:52;;;;;;;2.60;1.38;;;;;;;;;;5075103;28;20067;-63
2022/08/21 09:39:42;;;;;;;3.28;1.40;;;;;;;;;;5075292;28;20024;-63
2022/08/21 09:42:11;;;;;;;3.50;1.30;;;;;;;;;;5071706;28;20044;-63
2022/08/21 09:44:42;;;;;;;4.82;1.58;;;;;;;;;;5075146;28;20032;-63
2022/08/21 09:47:12;;;;;;;3.38;1.27;;;;;;;;;;5074987;28;20032;-63
2022/08/21 09:49:41;;;;;;;4.65;1.40;;;;;;;;;;5075080;28;20031;-63
2022/08/21 09:52:16;;;;;;;4.50;1.40;;;;;;;;;;5074968;28;20025;-63
2022/08/21 09:54:45;;;;;;;4.10;1.33;;;;;;;;;;5075334;28;20035;-63
2022/08/21 09:57:38;;;;;;;3.90;1.02;;;;;;;;;;5074943;28;20040;-63
2022/08/21 10:00:12;;;;;;;3.40;1.15;;;;;;;;;;5074928;28;20035;-63
2022/08/21 10:02:38;;;;;;;5.15;1.30;;;;;;;;;;5074880;28;20411;-63
2022/08/21 10:05:16;;;;;;;2.78;1.10;;;;;;;;;;5074795;28;20032;-63
2022/08/21 10:07:46;;;;;;;1.95;1.10;;;;;;;;;;5074635;28;20028;-63
2022/08/21 10:10:20;;;;;;;4.28;1.30;;;;;;;;;;5074656;28;20032;-63
2022/08/21 10:12:47;;;;;;;2.17;1.05;;;;;;;;;;5074467;28;20028;-63
2022/08/21 10:15:27;;;;;;;3.88;1.13;;;;;;;;;;5074598;28;20078;-63
2022/08/21 10:18:08;;;;;;;2.70;1.00;;;;;;;;;;5074523;28;20445;-63
2022/08/21 10:20:41;;;;;;;4.00;1.30;;;;;;;;;;5074633;28;20380;-63
2022/08/21 10:23:16;;;;;;;3.35;1.30;;;;;;;;;;5074562;28;20085;-63
2022/08/21 10:26:12;;;;;;;4.65;1.35;;;;;;;;;;5074313;28;20039;-63
2022/08/21 10:28:39;;;;;;;2.58;1.02;;;;;;;;;;5069684;28;20048;-63
2022/08/21 10:31:44;;;;;;;3.05;1.33;;;;;;;;;;5089883;28;20036;-63
2022/08/21 10:34:11;;;;;;;1.77;1.00;;;;;;;;;;5052060;28;20041;-63
2022/08/21 10:36:47;;;;;;;3.83;1.27;;;;;;;;;;5051509;28;20056;-63
2022/08/21 10:39:31;;;;;;;3.95;1.10;;;;;;;;;;5064075;28;20039;-63
2022/08/21 10:42:10;;;;;;;3.58;1.20;;;;;;;;;;5073002;28;20070;-63
2022/08/21 10:44:43;;;;;;;3.95;1.23;;;;;;;;;;5074048;28;20020;-63
2022/08/21 10:47:18;;;;;;;4.25;1.20;;;;;;;;;;5073966;28;20537;-63
2022/08/21 10:49:48;;;;;;;2.60;1.10;;;;;;;;;;5073998;28;20055;-63
2022/08/21 10:52:30;;;;;;;4.22;1.33;;;;;;;;;;5072709;28;20056;-63
2022/08/21 10:54:57;;;;;;;3.67;1.23;;;;;;;;;;5073846;28;20488;-63
2022/08/21 10:57:42;;;;;;;2.78;1.02;;;;;;;;;;5073740;28;20035;-63
2022/08/21 11:00:12;;;;;;;3.10;1.15;;;;;;;;;;5073748;28;20097;-63
2022/08/21 11:02:57;;;;;;;3.17;1.38;;;;;;;;;;5073786;28;20159;-63
2022/08/21 11:05:27;;;;;;;3.95;1.10;;;;;;;;;;5073590;28;20051;-63
2022/08/21 11:07:57;;;;;;;5.40;1.10;;;;;;;;;;5073663;28;20386;-63
2022/08/21 11:10:26;;;;;;;4.38;1.08;;;;;;;;;;5073477;28;20056;-63
2022/08/21 11:12:56;;;;;;;2.20;0.90;;;;;;;;;;5073429;28;20060;-63
2022/08/21 11:15:37;;;;;;;2.60;1.13;;;;;;;;;;5073265;28;20028;-63
2022/08/21 11:18:26;;;;;;;2.03;1.00;;;;;;;;;;5073396;28;20035;-63
2022/08/21 11:20:53;;;;;;;2.42;1.00;;;;;;;;;;5073324;28;20090;-63
2022/08/21 11:23:42;;;;;;;3.22;1.30;;;;;;;;;;5073332;28;20032;-63
2022/08/21 11:26:15;;;;;;;2.92;1.17;;;;;;;;;;5070141;28;20041;-63
2022/08/21 11:28:46;;;;;;;4.30;1.35;;;;;;;;;;5073192;28;20036;-63
2022/08/21 11:31:31;;;;;;;3.33;1.33;;;;;;;;;;5073182;28;20031;-63
2022/08/21 11:34:07;;;;;;;1.73;1.10;;;;;;;;;;5073043;28;20032;-63
2022/08/21 11:36:34;;;;;;;1.85;0.90;;;;;;;;;;5072824;28;20069;-63
2022/08/21 11:39:19;;;;;;;3.28;1.00;;;;;;;;;;5073005;28;20174;-63
2022/08/21 11:42:02;;;;;;;2.05;0.85;;;;;;;;;;5073005;28;20033;-63
2022/08/21 11:44:28;;;;;;;;;;;;;;;;;;5073362;28;20506;-63
2022/08/21 11:47:03;;;;;;;2.85;0.93;;;;;;;;;;5072727;28;19915;-63
2022/08/21 11:49:45;;;;;;;3.38;1.13;;;;;;;;;;5072929;28;20070;-63
2022/08/21 11:52:34;;;;;;;2.75;0.90;;;;;;;;;;5072845;28;20175;-63
2022/08/21 11:55:01;;;;;;;1.63;0.82;;;;;;;;;;5072836;28;20112;-63
2022/08/21 11:57:45;;;;;;;1.77;0.85;;;;;;;;;;5072788;28;20020;-63
2022/08/21 12:00:17;;;;;;;2.72;1.10;;;;;;;;;;5072687;28;20024;-63
2022/08/21 12:02:47;;;;;;;2.42;1.10;;;;;;;;;;5072761;28;20040;-63
2022/08/21 12:05:24;;;;;;;2.47;1.10;;;;;;;;;;5072390;28;20025;-63
2022/08/21 12:08:01;;;;;;;2.35;1.02;;;;;;;;;;5072763;28;20028;-63
2022/08/21 12:10:33;;;;;;;3.28;1.10;;;;;;;;;;5072642;28;20056;-63
2022/08/21 12:13:08;;;;;;;2.30;0.95;;;;;;;;;;5072410;28;20094;-63
2022/08/21 12:15:37;;;;;;;3.25;1.08;;;;;;;;;;5072402;28;20048;-63
2022/08/21 12:18:24;;;;;;;3.30;1.10;;;;;;;;;;5072647;28;20032;-63
2022/08/21 12:21:02;;;;;;;2.65;1.00;;;;;;;;;;5072416;28;20052;-63
2022/08/21 12:23:49;;;;;;;4.68;1.30;;;;;;;;;;5072564;28;20437;-63
2022/08/21 12:26:33;;;;;;;3.03;1.38;;;;;;;;;;5072303;28;20052;-63
2022/08/21 12:29:05;;;;;;;2.63;1.20;;;;;;;;;;5072515;28;20078;-63
2022/08/21 12:31:32;;;;;;;1.52;0.90;;;;;;;;;;5072353;28;20037;-63
2022/08/21 12:34:00;;;;;;;1.98;1.10;;;;;;;;;;5072358;28;20037;-63
2022/08/21 12:37:00;;;;;;;4.03;0.90;;;;;;;;;;5072219;28;20028;-63
2022/08/21 12:39:30;;;;;;;5.25;1.00;;;;;;;;;;5060179;28;20036;-63
2022/08/21 12:42:04;;;;;;;2.47;1.02;;;;;;;;;;5072250;28;20032;-63
2022/08/21 12:44:51;;;;;;;2.63;1.10;;;;;;;;;;5072312;28;20095;-63
2022/08/21 12:47:32;;;;;;;2.50;1.17;;;;;;;;;;5072042;28;20024;-63
2022/08/21 12:50:06;;;;;;;2.20;1.05;;;;;;;;;;5072365;28;20102;-63
2022/08/21 12:52:37;;;;;;;5.03;0.98;;;;;;;;;;5072127;28;20041;-63
2022/08/21 12:55:04;;;;;;;2.35;0.90;;;;;;;;;;5071819;28;20421;-63
2022/08/21 12:57:32;;;;;;;2.67;1.17;;;;;;;;;;5072055;28;20086;-63
2022/08/21 13:00:00;;;;;;;3.67;1.10;;;;;;;;;;5072259;28;20024;-63
2022/08/21 13:02:30;;;;;;;2.10;1.02;;;;;;;;;;5072109;28;20024;-63
2022/08/21 13:04:58;;;;;;;2.85;1.27;;;;;;;;;;5072099;28;20482;-63
2022/08/21 13:07:27;;;;;;;2.85;1.00;;;;;;;;;;5072007;28;20025;-63
2022/08/21 13:09:57;;;;;;;1.50;0.90;;;;;;;;;;5072051;28;20025;-63
2022/08/21 13:12:25;;;;;;;4.50;0.95;;;;;;;;;;5071892;28;20020;-63
2022/08/21 13:14:52;;;;;;;1.95;1.00;;;;;;;;;;5072060;28;20028;-63
2022/08/21 13:17:25;;;;;;;1.77;1.00;;;;;;;;;;5075412;28;20027;-63
2022/08/21 13:19:56;;;;;;;3.00;1.10;;;;;;;;;;5075655;28;20024;-63
2022/08/21 13:22:24;;;;;;;2.58;1.10;;;;;;;;;;5075577;28;20041;-63
2022/08/21 13:24:51;;;;;;;1.83;1.10;;;;;;;;;;5055513;28;20090;-63
2022/08/21 13:27:20;;;;;;;2.08;0.93;;;;;;;;;;5035554;28;20037;-63
2022/08/21 13:29:47;;;;;;;1.45;0.80;;;;;;;;;;5035537;28;20029;-63
2022/08/21 13:32:21;;;;;;;2.10;1.10;;;;;;;;;;5035346;28;20140;-63
2022/08/21 13:34:48;;;;;;;3.47;1.17;;;;;;;;;;5041973;28;20755;-64
2022/08/21 13:37:15;;;;;;;2.45;1.10;;;;;;;;;;5055031;28;20070;-65
2022/08/21 13:39:43;;;;;;;4.03;1.00;;;;;;;;;;5055051;28;20043;-63
2022/08/21 13:42:12;;;;;;;3.28;1.17;;;;;;;;;;5055143;28;20044;-62
2022/08/21 13:44:44;;;;;;;5.63;1.20;;;;;;;;;;5053716;28;20108;-62
2022/08/21 13:47:13;;;;;;;3.17;1.10;;;;;;;;;;5045001;28;20056;-62
2022/08/21 13:49:48;;;;;;;3.40;1.48;;;;;;;;;;5054419;28;20025;-62
2022/08/21 13:52:20;;;;;;;4.00;1.20;;;;;;;;;;5051933;28;20060;-62
2022/08/21 13:54:53;;;;;;;7.78;1.27;;;;;;;;;;5054404;28;20478;-61
2022/08/21 13:57:25;;;;;;;6.65;1.50;;;;;;;;;;5051302;28;20433;-62
2022/08/21 13:59:52;;;;;;;3.63;1.17;;;;;;;;;;5053582;28;20445;-61
2022/08/21 14:02:22;;;;;;;4.75;1.33;;;;;;;;;;5050442;28;20544;-62
2022/08/21 14:04:56;;;;;;;4.28;1.20;;;;;;;;;;5053568;28;20425;-61
2022/08/21 14:07:32;;;;;;;5.95;1.73;;;;;;;;;;5052998;28;20475;-62
2022/08/21 14:10:02;;;;;;;6.80;1.65;;;;;;;;;;5051803;28;20057;-62
2022/08/21 14:12:41;;;;;;;13.23;1.67;;;;;;;;;;5054091;28;20043;-61
2022/08/21 14:15:10;;;;;;;7.55;1.65;;;;;;;;;;5052237;28;20108;-62
2022/08/21 14:17:39;;;;;;;11.75;2.00;;;;;;;;;;5054106;28;20108;-61
2022/08/21 14:20:10;;;;;;;11.32;1.85;;;;;;;;;;5052895;28;20108;-62
2022/08/21 14:22:47;;;;;;;14.90;2.03;;;;;;;;;;5053962;28;20040;-62
2022/08/21 14:25:27;;;;;;;11.60;1.70;;;;;;;;;;5049946;28;20154;-62
2022/08/21 14:28:09;;;;;;;11.18;1.85;;;;;;;;;;5048146;28;20486;-62
2022/08/21 14:30:38;;;;;;;12.37;2.20;;;;;;;;;;5051465;28;20028;-61
2022/08/21 14:33:09;;;;;;;8.60;1.85;;;;;;;;;;5052612;28;20469;-61
2022/08/21 14:35:36;;;;;;;14.65;1.98;;;;;;;;;;5054018;28;20027;-61
2022/08/21 14:38:03;;;;;;;12.52;1.75;;;;;;;;;;5053401;28;20103;-61
2022/08/21 14:40:30;;;;;;;6.95;2.05;;;;;;;;;;5053671;28;20037;-61
2022/08/21 14:42:57;;;;;;;14.90;1.98;;;;;;;;;;5054018;28;20040;-61
2022/08/21 14:45:27;;;;;;;9.90;2.10;;;;;;;;;;5053989;28;20021;-61
2022/08/21 14:47:55;;;;;;;10.82;1.95;;;;;;;;;;5053981;28;20037;-61
2022/08/21 14:50:22;;;;;;;8.43;2.03;;;;;;;;;;5053886;28;20111;-61
2022/08/21 14:52:49;;;;;;;10.23;1.85;;;;;;;;;;5053818;28;20512;-61
2022/08/21 14:55:17;;;;;;;9.15;2.05;;;;;;;;;;5053887;28;20158;-61